createdAt,value
2023-04-22T00:02:31.914Z,9.94
2023-04-22T00:07:28.561Z,9.94
2023-04-22T00:13:39.116Z,9.94
2023-04-22T00:18:35.754Z,9.88
2023-04-22T00:23:32.074Z,9.76
2023-04-22T00:28:28.682Z,9.69
2023-04-22T00:34:39.516Z,9.76
2023-04-22T00:39:35.989Z,9.82
2023-04-22T00:44:32.404Z,9.76
2023-04-22T00:49:28.954Z,9.76
2023-04-22T00:54:25.648Z,9.88
2023-04-22T01:00:36.358Z,9.94
2023-04-22T01:05:32.790Z,9.94
2023-04-22T01:10:29.360Z,10.07
2023-04-22T01:15:25.951Z,10
2023-04-22T01:21:36.397Z,10.07
2023-04-22T01:26:33.194Z,10.07
2023-04-22T01:31:29.677Z,10.13
2023-04-22T01:36:26.119Z,10.13
2023-04-22T01:42:36.938Z,10.13
2023-04-22T01:47:33.366Z,10.07
2023-04-22T01:52:29.936Z,10.07
2023-04-22T01:57:26.436Z,10.13
2023-04-22T02:03:37.046Z,10.07
2023-04-22T02:08:33.476Z,10.13
2023-04-22T02:13:30.332Z,10.2
2023-04-22T02:18:26.502Z,10.13
2023-04-22T02:24:37.244Z,10.13
2023-04-22T02:29:33.972Z,10.07
2023-04-22T02:34:30.377Z,10.07
2023-04-22T02:39:27.002Z,10.07
2023-04-22T02:45:37.515Z,10.07
2023-04-22T02:50:34.024Z,10.07
2023-04-22T02:55:30.567Z,10.07
2023-04-22T03:06:38.882Z,10.13
2023-04-22T03:11:34.513Z,10
2023-04-22T03:16:30.934Z,9.94
2023-04-22T03:21:27.414Z,10
2023-04-22T03:27:38.089Z,10
2023-04-22T03:32:34.749Z,9.94
2023-04-22T03:37:31.057Z,9.94
2023-04-22T03:42:27.609Z,9.94
2023-04-22T03:48:38.351Z,9.88
2023-04-22T03:53:35.060Z,9.88
2023-04-22T03:58:31.351Z,9.88
2023-04-22T04:03:29.522Z,9.88
2023-04-22T04:09:38.769Z,9.88
2023-04-22T04:14:35.296Z,9.94
2023-04-22T04:19:31.596Z,9.88
2023-04-22T04:24:28.173Z,9.82
2023-04-22T04:30:38.724Z,9.94
2023-04-22T04:35:35.375Z,9.94
2023-04-22T04:40:31.758Z,9.94
2023-04-22T04:45:28.305Z,10
2023-04-22T04:51:38.976Z,10.07
2023-04-22T04:56:35.634Z,10.13
2023-04-22T05:01:32.418Z,10.13
2023-04-22T05:06:28.636Z,10.2
2023-04-22T05:11:33.388Z,10.26
2023-04-22T05:16:30.388Z,10.32
2023-04-22T05:21:26.407Z,10.32
2023-04-22T05:27:37.076Z,10.52
2023-04-22T05:32:33.919Z,10.52
2023-04-22T05:37:30.508Z,10.72
2023-04-22T05:42:26.838Z,10.72
2023-04-22T05:48:37.453Z,11.13
2023-04-22T05:53:33.887Z,11.2
2023-04-22T05:58:30.581Z,11.27
2023-04-22T06:03:27.236Z,11.41
2023-04-22T06:09:37.933Z,11.55
2023-04-22T06:14:34.326Z,11.48
2023-04-22T06:19:30.778Z,11.48
2023-04-22T06:24:27.304Z,11.41
2023-04-22T06:30:37.913Z,11.62
2023-04-22T06:35:34.564Z,11.69
2023-04-22T06:40:30.918Z,11.77
2023-04-22T06:45:27.535Z,11.69
2023-04-22T06:51:38.182Z,11.77
2023-04-22T06:56:34.889Z,11.84
2023-04-22T07:01:31.337Z,12.36
2023-04-22T07:06:27.774Z,12.38
2023-04-22T07:12:38.356Z,12.22
2023-04-22T07:17:34.960Z,12.17
2023-04-22T07:22:31.382Z,11.6
2023-04-22T07:27:28.136Z,11.42
2023-04-22T07:32:24.721Z,11.02
2023-04-22T07:38:35.346Z,11.17
2023-04-22T07:43:31.510Z,11.18
2023-04-22T07:48:28.460Z,10.8
2023-04-22T07:54:38.888Z,10.84
2023-04-22T07:59:35.594Z,10.89
2023-04-22T08:04:32.149Z,10.31
2023-04-22T08:09:28.597Z,9.74
2023-04-22T08:15:39.269Z,10.02
2023-04-22T08:20:35.842Z,9.8
2023-04-22T08:25:32.301Z,9.6
2023-04-22T08:30:29.201Z,9.57
2023-04-22T08:35:25.514Z,9.57
2023-04-22T08:41:36.192Z,9.33
2023-04-22T08:46:32.678Z,9.45
2023-04-22T08:51:29.267Z,9.54
2023-04-22T08:56:25.733Z,9.08
2023-04-22T09:02:36.443Z,9.13
2023-04-22T09:12:29.573Z,8.71
2023-04-22T09:17:26.076Z,8.45
2023-04-22T09:23:36.536Z,8.4
2023-04-22T09:28:33.188Z,8.26
2023-04-22T09:33:29.837Z,8.39
2023-04-22T09:44:36.814Z,8.63
2023-04-22T09:49:33.633Z,8.45
2023-04-22T09:54:30.391Z,8.54
2023-04-22T09:59:26.481Z,8.54
2023-04-22T10:05:36.969Z,8.53
2023-04-22T10:10:33.887Z,8.63
2023-04-22T10:15:30.740Z,8.94
2023-04-22T10:20:32.000Z,8.89
2023-04-22T10:26:37.441Z,8.85
2023-04-22T10:31:34.089Z,8.37
2023-04-22T10:36:30.828Z,8.41
2023-04-22T10:41:27.224Z,8.82
2023-04-22T10:47:37.836Z,8.72
2023-04-22T10:52:34.365Z,8.55
2023-04-22T10:57:30.996Z,8.72
2023-04-22T11:02:27.562Z,8.51
2023-04-22T11:08:38.030Z,8.74
2023-04-22T11:13:34.512Z,8.98
2023-04-22T11:18:31.372Z,9.17
2023-04-22T11:23:27.522Z,9.14
2023-04-22T11:29:38.399Z,8.63
2023-04-22T11:34:35.065Z,9.28
2023-04-22T11:39:31.372Z,8.71
2023-04-22T11:44:27.863Z,8.43
2023-04-22T11:50:38.504Z,8.53
2023-04-22T11:55:35.076Z,8.51
2023-04-22T12:00:31.662Z,8.66
2023-04-22T12:05:28.238Z,8.87
2023-04-22T12:11:38.846Z,8.55
2023-04-22T12:16:35.566Z,8.88
2023-04-22T12:21:31.859Z,9.05
2023-04-22T12:26:28.310Z,9.45
2023-04-22T12:31:25.090Z,8.93
2023-04-22T12:33:53.092Z,8.99
2023-04-22T12:37:35.551Z,8.76
2023-04-22T12:42:32.105Z,9.02
2023-04-22T12:47:28.619Z,9.19
2023-04-22T12:53:39.212Z,9.1
2023-04-22T12:58:35.794Z,9.23
2023-04-22T13:03:32.453Z,8.78
2023-04-22T13:08:28.899Z,9
2023-04-22T13:13:25.541Z,8.99
2023-04-22T13:19:36.142Z,9.13
2023-04-22T13:24:32.561Z,9.06
2023-04-22T13:29:29.318Z,9.26
2023-04-22T13:34:26.785Z,9.28
2023-04-22T13:40:36.288Z,9.44
2023-04-22T13:50:29.386Z,9.34
2023-04-22T13:55:26.427Z,9.41
2023-04-22T14:01:36.751Z,9.7
2023-04-22T14:06:33.143Z,9.51
2023-04-22T14:11:30.102Z,9.59
2023-04-22T14:22:36.810Z,11.03
2023-04-22T14:27:34.838Z,11.48
2023-04-22T14:32:35.180Z,12.43
2023-04-22T14:37:26.488Z,12.31
2023-04-22T14:43:37.119Z,11.95
2023-04-22T14:48:33.678Z,11.69
2023-04-22T14:53:30.800Z,12.67
2023-04-22T14:58:26.718Z,12.01
2023-04-22T15:04:37.459Z,11.9
2023-04-22T15:09:34.178Z,11.63
2023-04-22T15:14:35.748Z,12.3
2023-04-22T15:19:26.978Z,11.93
2023-04-22T15:25:37.669Z,11.43
2023-04-22T15:30:34.332Z,11.56
2023-04-22T15:34:16.738Z,11.42
2023-04-22T15:35:30.825Z,11.62
2023-04-22T15:46:38.024Z,11.95
2023-04-22T15:51:34.528Z,11.96
2023-04-22T15:56:31.298Z,10.76
2023-04-22T16:01:27.576Z,10.48
2023-04-22T16:07:37.983Z,10.18
2023-04-22T16:12:34.731Z,10.48
2023-04-22T16:17:31.021Z,11.03
2023-04-22T16:22:27.572Z,11.68
2023-04-22T16:28:38.215Z,12.2
2023-04-22T16:33:34.818Z,12.48
2023-04-22T16:38:31.246Z,12.79
2023-04-22T16:43:27.848Z,13.33
2023-04-22T16:49:38.923Z,13.79
2023-04-22T16:54:35.089Z,13.71
2023-04-22T16:59:31.522Z,13.79
2023-04-22T17:04:28.272Z,13.87
2023-04-22T17:10:38.692Z,13.87
2023-04-22T17:15:35.306Z,13.79
2023-04-22T17:20:31.742Z,13.71
2023-04-22T17:25:28.375Z,13.71
2023-04-22T17:31:39.241Z,13.63
2023-04-22T17:35:29.674Z,12.98
2023-04-22T17:40:26.080Z,12.51
2023-04-22T17:46:36.864Z,12.28
2023-04-22T17:51:33.314Z,12.21
2023-04-22T17:56:29.852Z,12.36
2023-04-22T18:01:26.379Z,12.28
2023-04-22T18:07:37.075Z,12.28
2023-04-22T18:12:33.599Z,12.21
2023-04-22T18:17:30.244Z,12.28
2023-04-22T18:22:26.698Z,12.21
2023-04-22T18:28:37.415Z,12.36
2023-04-22T18:33:33.881Z,12.21
2023-04-22T18:38:30.560Z,12.21
2023-04-22T18:49:37.636Z,12.21
2023-04-22T18:54:34.081Z,12.21
2023-04-22T18:59:30.814Z,12.44
2023-04-22T19:04:27.182Z,12.36
2023-04-22T19:10:37.834Z,12.28
2023-04-22T19:15:34.507Z,12.28
2023-04-22T19:20:31.086Z,12.28
2023-04-22T19:25:27.516Z,12.28
2023-04-22T19:31:38.255Z,12.36
2023-04-22T19:36:34.634Z,12.36
2023-04-22T19:41:31.193Z,12.51
2023-04-22T19:46:27.818Z,12.44
2023-04-22T19:52:38.404Z,12.51
2023-04-22T19:57:35.020Z,12.44
2023-04-22T20:02:31.571Z,12.44
2023-04-22T20:07:28.004Z,12.44
2023-04-22T20:13:38.614Z,12.44
2023-04-22T20:18:35.195Z,12.44
2023-04-22T20:23:31.666Z,12.44
2023-04-22T20:28:28.405Z,12.28
2023-04-22T20:34:39.131Z,12.28
2023-04-22T20:39:35.494Z,12.36
2023-04-22T20:44:31.962Z,12.21
2023-04-22T20:49:28.593Z,12.28
2023-04-22T20:55:39.260Z,12.28
2023-04-22T21:00:35.725Z,12.21
2023-04-22T21:05:32.249Z,12.13
2023-04-22T21:10:28.856Z,12.21
2023-04-22T21:16:39.494Z,12.28
2023-04-22T21:21:35.989Z,12.36
2023-04-22T21:26:32.516Z,12.21
2023-04-22T21:31:29.086Z,11.77
2023-04-22T21:36:25.600Z,11.55
2023-04-22T21:42:36.245Z,11.41
2023-04-22T21:47:32.749Z,11.06
2023-04-22T21:52:29.348Z,10.99
2023-04-22T21:57:25.894Z,10.92
2023-04-22T22:03:36.701Z,10.79
2023-04-22T22:08:33.275Z,10.72
2023-04-22T22:13:29.625Z,10.59
2023-04-22T22:18:26.201Z,10.52
2023-04-22T22:24:36.800Z,10.39
2023-04-22T22:29:33.305Z,10.26
2023-04-22T22:34:30.070Z,10.2
2023-04-22T22:39:26.378Z,10.2
2023-04-22T22:45:37.149Z,10.26
2023-04-22T22:50:33.585Z,10.26
2023-04-22T22:55:30.239Z,10.13
2023-04-22T23:00:26.638Z,10.13
2023-04-22T23:06:37.270Z,10.13
2023-04-22T23:11:33.811Z,10.13
2023-04-22T23:16:30.341Z,10.2
2023-04-22T23:21:26.881Z,10.13
2023-04-22T23:27:37.582Z,10.26
2023-04-22T23:32:34.140Z,10.26
2023-04-22T23:37:30.837Z,10.13
2023-04-22T23:42:27.265Z,10.2
2023-04-22T23:48:37.821Z,10.07
2023-04-22T23:53:34.362Z,9.94
2023-04-22T23:58:30.998Z,9.94
